createdAt,value
2019-02-27T00:05:01.382Z,2.20
2019-02-27T00:10:06.831Z,2.00
2019-02-27T00:15:10.134Z,1.90
2019-02-27T00:20:19.429Z,1.90
2019-02-27T00:25:22.895Z,1.70
2019-02-27T00:30:27.582Z,1.70
2019-02-27T00:35:30.741Z,1.70
2019-02-27T00:40:39.291Z,1.70
2019-02-27T00:45:43.361Z,1.70
2019-02-27T00:50:46.930Z,1.70
2019-02-27T00:55:52.449Z,1.70
2019-02-27T01:00:55.765Z,1.80
2019-02-27T01:05:59.130Z,1.80
2019-02-27T01:11:02.749Z,1.80
2019-02-27T01:16:07.098Z,1.80
2019-02-27T01:21:10.409Z,1.80
2019-02-27T01:26:15.376Z,1.90
2019-02-27T01:31:21.933Z,1.90
2019-02-27T01:36:25.703Z,1.90
2019-02-27T01:41:29.537Z,1.90
2019-02-27T01:46:34.814Z,1.90
2019-02-27T01:51:38.860Z,2.00
2019-02-27T01:56:42.635Z,2.00
2019-02-27T02:01:47.389Z,2.00
2019-02-27T02:06:50.494Z,2.00
2019-02-27T02:11:54.233Z,2.00
2019-02-27T02:17:41.972Z,2.00
2019-02-27T02:24:20.936Z,2.00
2019-02-27T02:30:11.744Z,1.90
2019-02-27T02:36:10.532Z,1.90
2019-02-27T02:41:55.028Z,1.70
2019-02-27T02:47:44.249Z,1.80
2019-02-27T02:53:11.224Z,1.80
2019-02-27T02:59:33.202Z,1.70
2019-02-27T03:05:38.117Z,1.60
2019-02-27T03:11:18.989Z,1.60
2019-02-27T03:17:17.884Z,1.50
2019-02-27T03:23:05.818Z,1.50
2019-02-27T03:28:59.432Z,1.40
2019-02-27T03:35:09.526Z,1.30
2019-02-27T03:41:25.724Z,1.30
2019-02-27T03:47:17.181Z,1.30
2019-02-27T03:53:19.745Z,1.30
2019-02-27T03:59:47.331Z,1.20
2019-02-27T04:05:32.004Z,1.20
2019-02-27T04:10:35.838Z,1.10
2019-02-27T04:15:41.478Z,1.10
2019-02-27T04:20:50.875Z,1.10
2019-02-27T04:25:52.519Z,1.00
2019-02-27T04:30:56.488Z,0.90
2019-02-27T04:36:00.400Z,0.90
2019-02-27T04:41:03.830Z,0.90
2019-02-27T04:46:07.558Z,0.80
2019-02-27T04:51:17.178Z,0.80
2019-02-27T04:56:24.075Z,0.60
2019-02-27T05:01:28.212Z,0.60
2019-02-27T05:06:32.620Z,0.60
2019-02-27T05:11:36.627Z,0.50
2019-02-27T05:16:40.398Z,0.50
2019-02-27T05:21:44.023Z,0.50
2019-02-27T05:26:48.945Z,0.40
2019-02-27T05:31:54.191Z,0.40
2019-02-27T05:37:13.892Z,0.40
2019-02-27T05:42:18.616Z,1.60
2019-02-27T05:47:22.136Z,0.40
2019-02-27T05:52:25.447Z,0.30
2019-02-27T05:57:31.426Z,0.40
2019-02-27T06:02:35.382Z,0.40
2019-02-27T06:07:39.816Z,0.50
2019-02-27T06:12:43.196Z,0.50
2019-02-27T06:17:50.588Z,0.60
2019-02-27T06:22:56.291Z,0.70
2019-02-27T06:28:00.138Z,0.80
2019-02-27T06:33:04.190Z,1.00
2019-02-27T06:38:08.300Z,1.20
2019-02-27T06:43:11.629Z,1.40
2019-02-27T06:48:16.214Z,1.50
2019-02-27T06:53:20.310Z,1.70
2019-02-27T06:58:23.696Z,1.90
2019-02-27T07:03:29.562Z,2.00
2019-02-27T07:08:38.032Z,2.40
2019-02-27T07:13:43.376Z,2.50
2019-02-27T07:18:49.421Z,2.70
2019-02-27T07:23:58.491Z,2.80
2019-02-27T07:29:06.866Z,2.90
2019-02-27T07:34:14.216Z,3.10
2019-02-27T07:39:17.293Z,3.30
2019-02-27T07:44:20.991Z,3.50
2019-02-27T07:49:24.321Z,3.80
2019-02-27T07:54:29.140Z,3.90
2019-02-27T07:59:38.143Z,4.10
2019-02-27T08:04:41.952Z,4.40
2019-02-27T08:09:45.048Z,4.50
2019-02-27T08:14:49.604Z,4.70
2019-02-27T08:19:53.170Z,4.90
2019-02-27T08:24:56.524Z,5.20
2019-02-27T08:30:00.001Z,5.20
2019-02-27T08:35:04.064Z,5.50
2019-02-27T08:40:07.956Z,5.50
2019-02-27T08:45:19.624Z,5.60
2019-02-27T08:50:18.244Z,5.70
2019-02-27T08:55:22.974Z,6.00
2019-02-27T09:00:26.385Z,6.40
2019-02-27T09:05:30.230Z,6.40
2019-02-27T09:10:33.592Z,6.40
2019-02-27T09:15:36.946Z,6.50
2019-02-27T09:20:40.166Z,6.70
2019-02-27T09:25:46.070Z,6.90
2019-02-27T09:30:50.453Z,7.10
2019-02-27T09:35:55.234Z,7.30
2019-02-27T09:40:58.523Z,7.30
2019-02-27T09:46:01.903Z,7.50
2019-02-27T09:51:05.348Z,7.80
2019-02-27T09:56:08.938Z,8.00
2019-02-27T10:01:17.069Z,8.10
2019-02-27T10:06:20.514Z,8.30
2019-02-27T10:11:24.707Z,8.50
2019-02-27T10:16:28.167Z,8.50
2019-02-27T10:21:32.420Z,8.60
2019-02-27T10:26:35.724Z,8.90
2019-02-27T10:31:39.060Z,9.10
2019-02-27T10:36:44.106Z,9.00
2019-02-27T10:41:50.570Z,9.30
2019-02-27T10:46:53.827Z,9.50
2019-02-27T10:51:57.517Z,9.60
2019-02-27T10:57:00.860Z,9.80
2019-02-27T11:02:04.103Z,9.90
2019-02-27T11:07:07.685Z,9.80
2019-02-27T11:12:12.218Z,10.00
2019-02-27T11:17:16.296Z,10.10
2019-02-27T11:22:19.612Z,10.30
2019-02-27T11:27:23.922Z,10.50
2019-02-27T11:32:27.538Z,10.40
2019-02-27T11:37:31.990Z,10.70
2019-02-27T11:42:35.029Z,10.80
2019-02-27T11:47:39.154Z,10.90
2019-02-27T11:52:48.781Z,10.90
2019-02-27T11:57:48.041Z,10.90
2019-02-27T12:02:52.087Z,11.20
2019-02-27T12:07:56.035Z,11.40
2019-02-27T12:13:00.886Z,11.40
2019-02-27T12:18:05.603Z,11.40
2019-02-27T12:23:10.098Z,11.40
2019-02-27T12:28:17.356Z,11.40
2019-02-27T12:33:20.029Z,11.60
2019-02-27T12:38:23.708Z,11.60
2019-02-27T12:43:27.285Z,11.70
2019-02-27T12:48:30.600Z,11.80
2019-02-27T12:53:33.719Z,11.70
2019-02-27T12:58:36.877Z,11.60
2019-02-27T13:03:42.447Z,11.60
2019-02-27T13:08:46.794Z,11.40
2019-02-27T13:13:49.961Z,11.40
2019-02-27T13:18:53.855Z,11.50
2019-02-27T13:23:57.258Z,11.60
2019-02-27T13:29:01.236Z,11.60
2019-02-27T13:34:05.236Z,11.50
2019-02-27T13:39:08.333Z,11.80
2019-02-27T13:44:11.901Z,11.70
2019-02-27T13:49:15.227Z,12.20
2019-02-27T13:54:18.822Z,12.30
2019-02-27T13:59:23.008Z,12.10
2019-02-27T14:04:26.878Z,11.90
2019-02-27T14:09:30.492Z,11.60
2019-02-27T14:14:33.884Z,11.80
2019-02-27T14:19:37.804Z,11.80
2019-02-27T14:24:41.095Z,11.70
2019-02-27T14:29:44.197Z,11.70
2019-02-27T14:34:47.471Z,11.70
2019-02-27T14:39:51.060Z,11.60
2019-02-27T14:44:54.035Z,11.70
2019-02-27T14:49:59.348Z,11.70
2019-02-27T14:55:03.505Z,11.60
2019-02-27T15:00:13.244Z,11.80
2019-02-27T15:05:16.454Z,11.70
2019-02-27T15:10:20.296Z,11.60
2019-02-27T15:15:25.633Z,11.60
2019-02-27T15:20:29.195Z,11.30
2019-02-27T15:25:32.184Z,11.30
2019-02-27T15:30:36.709Z,10.10
2019-02-27T15:35:41.614Z,10.90
2019-02-27T15:40:45.292Z,10.90
2019-02-27T15:45:49.180Z,10.70
2019-02-27T15:50:56.409Z,10.30
2019-02-27T15:55:58.884Z,10.40
2019-02-27T16:01:02.918Z,11.00
2019-02-27T16:06:06.707Z,11.50
2019-02-27T16:11:10.444Z,11.80
2019-02-27T16:16:13.790Z,11.50
2019-02-27T16:21:17.551Z,10.70
2019-02-27T16:26:20.957Z,10.20
2019-02-27T16:31:24.323Z,9.70
2019-02-27T16:36:35.984Z,9.60
2019-02-27T16:41:32.840Z,9.30
2019-02-27T16:46:43.577Z,9.10
2019-02-27T16:51:41.883Z,9.00
2019-02-27T16:56:47.542Z,8.90
2019-02-27T17:01:51.802Z,8.70
2019-02-27T17:06:56.039Z,8.60
2019-02-27T17:11:59.207Z,8.40
2019-02-27T17:17:02.696Z,8.20
2019-02-27T17:27:12.549Z,8.20
2019-02-27T17:32:14.496Z,8.20
2019-02-27T17:37:18.390Z,8.20
2019-02-27T17:42:22.152Z,8.20
2019-02-27T17:47:28.839Z,8.20
2019-02-27T17:52:33.332Z,8.20
2019-02-27T17:57:37.208Z,8.10
2019-02-27T18:02:40.551Z,8.00
2019-02-27T18:07:45.085Z,7.80
2019-02-27T18:13:01.428Z,7.80
2019-02-27T18:18:07.505Z,7.70
2019-02-27T18:23:11.457Z,7.60
2019-02-27T18:28:14.557Z,7.50
2019-02-27T18:33:17.898Z,7.40
2019-02-27T18:38:21.284Z,7.40
2019-02-27T18:43:27.253Z,7.20
2019-02-27T18:48:30.825Z,7.00
2019-02-27T18:53:35.294Z,6.90
2019-02-27T18:58:38.928Z,6.80
2019-02-27T19:03:42.170Z,6.60
2019-02-27T19:08:45.502Z,6.60
2019-02-27T19:13:48.625Z,6.40
2019-02-27T19:18:51.832Z,6.40
2019-02-27T19:23:54.958Z,6.40
2019-02-27T19:28:59.587Z,6.30
2019-02-27T19:34:03.648Z,6.30
2019-02-27T19:39:07.499Z,6.40
2019-02-27T19:44:10.968Z,6.50
2019-02-27T19:49:16.294Z,6.90
2019-02-27T19:54:19.637Z,6.90
2019-02-27T19:59:24.880Z,7.20
2019-02-27T20:04:28.406Z,7.20
2019-02-27T20:09:31.723Z,7.20
2019-02-27T20:14:36.682Z,7.30
2019-02-27T20:19:40.598Z,7.30
2019-02-27T20:24:43.868Z,7.30
2019-02-27T20:29:47.423Z,7.30
2019-02-27T20:34:50.909Z,7.30
2019-02-27T20:39:58.345Z,7.20
2019-02-27T20:44:59.575Z,7.20
2019-02-27T20:50:03.128Z,7.20
2019-02-27T20:55:07.176Z,7.20
2019-02-27T21:00:12.707Z,7.20
2019-02-27T21:05:16.099Z,7.00
2019-02-27T21:10:23.229Z,7.00
2019-02-27T21:15:29.277Z,7.00
2019-02-27T21:20:33.206Z,7.00
2019-02-27T21:25:37.008Z,7.00
2019-02-27T21:30:40.184Z,7.00
2019-02-27T21:35:44.664Z,7.00
2019-02-27T21:40:48.573Z,7.00
2019-02-27T21:46:11.731Z,7.10
2019-02-27T21:51:14.485Z,7.20
2019-02-27T21:56:18.032Z,7.10
2019-02-27T22:01:22.708Z,7.00
2019-02-27T22:06:27.501Z,7.10
2019-02-27T22:11:32.000Z,7.00
2019-02-27T22:16:35.655Z,7.00
2019-02-27T22:21:40.541Z,7.00
2019-02-27T22:26:43.737Z,7.00
2019-02-27T22:31:47.492Z,6.90
2019-02-27T22:36:51.068Z,6.90
2019-02-27T22:41:54.203Z,6.70
2019-02-27T22:47:10.492Z,6.70
2019-02-27T22:52:13.814Z,6.60
2019-02-27T22:57:17.299Z,6.50
2019-02-27T23:02:23.175Z,6.40
2019-02-27T23:12:31.217Z,6.50
2019-02-27T23:17:34.850Z,6.40
2019-02-27T23:22:41.953Z,6.50
2019-02-27T23:27:46.070Z,6.40
2019-02-27T23:32:49.708Z,6.40
2019-02-27T23:37:53.083Z,6.40
2019-02-27T23:43:03.425Z,6.20
2019-02-27T23:48:05.633Z,6.20
2019-02-27T23:53:08.646Z,6.20
2019-02-27T23:58:11.645Z,6.30
